Overview Statistics Trail Chart Weather Telemetry Raw packets
 

This is the latest recevied weather packets stored in our database for station/object K7MT-WX. If no packets are shown the sender has not sent any weather packets the latest 10 day(s).

<< 14 15 16 17 18 19 20 >>
Time Temp. Humidity Pressure Rain* Wind** Luminosity Snow
1788275126 13.33° C 60% 1014.3 hPa 0 mm - - -
1788274205 12.78° C 63% 1014.3 hPa 0 mm - - -
1788273326 11.67° C 66% 1014.2 hPa 0 mm - - -
1788272405 10.56° C 70% 1014.2 hPa 0 mm - - -
1788271475 9.44° C 76% 1014.1 hPa 0 mm - - -
1788270575 8.33° C 81% 1014 hPa 0 mm - - -
1788269675 7.78° C 82% 1014 hPa 0 mm - - -
1788268775 7.22° C 82% 1013.9 hPa 0 mm - - -
1788267875 7.22° C 83% 1013.8 hPa 0 mm - - -
1788266975 7.78° C 78% 1013.7 hPa 0 mm - - -
1788266075 7.78° C 78% 1013.9 hPa 0 mm - - -
1788265175 7.78° C 78% 1013.7 hPa 0 mm - - -
1788264275 8.33° C 77% 1013.8 hPa 0 mm - - -
1788263375 8.33° C 76% 1013.7 hPa 0 mm - - -
1788262475 8.33° C 76% 1013.8 hPa 0 mm - - -
1788261575 8.89° C 76% 1013.7 hPa 0 mm - - -
1788260675 8.89° C 76% 1013.8 hPa 0 mm - - -
1788259775 8.89° C 77% 1013.8 hPa 0 mm - - -
1788258875 9.44° C 73% 1013.7 hPa 0 mm - - -
1788257975 10° C 70% 1013.7 hPa 0 mm - - -
1788257075 8.89° C 71% 1013.7 hPa 0 mm - - -
1788256175 8.89° C 72% 1013.6 hPa 0 mm - - -
1788255275 9.44° C 72% 1013.7 hPa 0 mm - - -
1788254375 9.44° C 72% 1013.7 hPa 0 mm - - -
1788253475 9.44° C 72% 1013.7 hPa 0 mm - - -

* Rain latest hour (hover to see other rain measurements)
** Current wind speed in m/s (hover to see current wind gust speed)